This is the latest recevied weather packets stored in our database for station/object VA7NEZ. If no packets are shown the sender has not sent any weather packets the latest 10 day(s).
| Time | Temp. | Humidity | Pressure | Rain* | Wind** | Luminosity | Snow |
|---|---|---|---|---|---|---|---|
| 1777889042 | 10° C | 65% | 1011.4 hPa | 0 mm | - | - | - |
| 1777888442 | 10° C | 66% | 1011.4 hPa | 0 mm | - | - | - |
| 1777887362 | 10.56° C | 68% | 1011.3 hPa | 0 mm | - | - | - |
| 1777886827 | 10.56° C | 65% | 1011.4 hPa | 0 mm | - | - | - |
| 1777886307 | 10.56° C | 64% | 1011.3 hPa | 0 mm | - | - | - |
| 1777885187 | 10.56° C | 61% | 1011.2 hPa | 0 mm | - | - | - |
| 1777884668 | 11.11° C | 65% | 1011 hPa | 0 mm | - | - | - |
| 1777883532 | 11.11° C | 60% | 1011.1 hPa | 0 mm | - | - | - |
| 1777882952 | 11.67° C | 61% | 1011 hPa | 0 mm | - | - | - |
| 1777882447 | 11.67° C | 61% | 1011 hPa | 0 mm | - | - | - |
| 1777881297 | 12.22° C | 60% | 1011.2 hPa | 0 mm | - | - | - |
| 1777880742 | 12.22° C | 60% | 1011.2 hPa | 0 mm | - | - | - |
| 1777879647 | 12.78° C | 58% | 1011.1 hPa | 0 mm | - | - | - |
| 1777879067 | 12.78° C | 57% | 1011 hPa | 0 mm | - | - | - |
| 1777878517 | 12.78° C | 57% | 1010.9 hPa | 0 mm | - | - | - |
| 1777877992 | 13.33° C | 59% | 1010.7 hPa | 0 mm | - | - | - |
| 1777877401 | 0° C | 100% | 1010.9 hPa | 0 mm | - | - | - |
| 1777876872 | 13.89° C | 56% | 1010.8 hPa | 0 mm | - | - | - |
| 1777876278 | 13.89° C | 60% | 1010.7 hPa | 0 mm | - | - | - |
| 1777875741 | 14.44° C | 55% | 1010.7 hPa | 0 mm | - | - | - |
| 1777875221 | 14.44° C | 56% | 1010.7 hPa | 0 mm | - | - | - |
| 1777874626 | 15° C | 57% | 1010.7 hPa | 0 mm | - | - | - |
| 1777873497 | 15.56° C | 54% | 1010.4 hPa | 0 mm | - | - | - |
| 1777873002 | 15.56° C | 54% | 1010.5 hPa | 0 mm | - | - | - |
| 1777871992 | 16.11° C | 54% | 1010.7 hPa | 0 mm | - | - | - |
* Rain latest hour (hover to see other rain measurements)
** Current wind speed in m/s (hover to see current wind gust speed)